Alpena, Michigan
Current Conditions -  °F | °C
As of 3:54 AM on Wednesday 28 Jan 2015 (Local Time) from KAPN Reporting Station
Clear Clear  
Wind Chill: -20°   Ceiling: Unl
Heat Index: -20°   Visibility: 10mi
Dew Point: -23°   Wind: 0mph
Humidity: 79%   Direction: NA
Pressure: 30.27"   Gusts: NA
Location:  45.06°N, 83.44°W
Report Text: KAPN 280854Z AUTO 00000KT 10SM CLR M20/M23 A3027 RMK AO2 SLP267 I3000 T12001228 53011
Loading
Personal Weather Stations






























Interactive Weather Map New forecast layout! Learn more

10-Day Weather Forecast

Advertisements
Track Severe Weather on mobile